createdAt,value
2019-05-21T00:01:28.957Z,25.48
2019-05-21T00:03:56.385Z,22.17
2019-05-21T00:06:23.901Z,21.62
2019-05-21T00:08:51.345Z,26.53
2019-05-21T00:11:18.774Z,22.30
2019-05-21T00:13:46.246Z,24.53
2019-05-21T00:16:13.715Z,23.73
2019-05-21T00:18:41.169Z,22.80
2019-05-21T00:21:08.633Z,21.77
2019-05-21T00:23:37.149Z,24.93
2019-05-21T00:26:04.672Z,22.13
2019-05-21T00:28:38.549Z,22.23
2019-05-21T00:31:17.682Z,21.17
2019-05-21T00:33:56.870Z,22.00
2019-05-21T00:36:36.214Z,19.10
2019-05-21T00:39:15.445Z,22.93
2019-05-21T00:41:54.581Z,18.93
2019-05-21T00:44:22.053Z,19.90
2019-05-21T00:46:49.527Z,21.23
2019-05-21T00:49:16.995Z,21.57
2019-05-21T00:51:44.434Z,18.40
2019-05-21T00:54:11.915Z,20.73
2019-05-21T00:56:39.372Z,18.70
2019-05-21T00:59:07.470Z,19.73
2019-05-21T01:01:34.928Z,20.43
2019-05-21T01:04:02.402Z,20.00
2019-05-21T01:06:29.900Z,20.02
2019-05-21T01:08:57.379Z,20.50
2019-05-21T01:11:25.174Z,22.20
2019-05-21T01:13:52.645Z,18.90
2019-05-21T01:16:20.113Z,22.27
2019-05-21T01:18:47.606Z,23.17
2019-05-21T01:21:15.069Z,21.23
2019-05-21T01:23:42.523Z,21.70
2019-05-21T01:26:09.974Z,21.67
2019-05-21T01:28:37.482Z,18.83
2019-05-21T01:31:04.924Z,21.73
2019-05-21T01:33:32.415Z,22.30
2019-05-21T01:35:59.891Z,19.77
2019-05-21T01:38:27.370Z,20.10
2019-05-21T01:40:55.764Z,20.17
2019-05-21T01:43:23.238Z,21.73
2019-05-21T01:45:50.796Z,15.97
2019-05-21T01:48:18.290Z,16.23
2019-05-21T01:50:45.759Z,13.07
2019-05-21T01:53:13.225Z,16.10
2019-05-21T01:55:40.726Z,16.00
2019-05-21T01:58:08.221Z,14.60
2019-05-21T02:00:35.689Z,14.93
2019-05-21T02:03:03.165Z,15.52
2019-05-21T02:05:33.234Z,17.90
2019-05-21T02:07:58.190Z,16.83
2019-05-21T02:10:26.325Z,19.43
2019-05-21T02:12:53.785Z,21.00
2019-05-21T02:15:21.267Z,22.53
2019-05-21T02:17:48.742Z,20.00
2019-05-21T02:20:16.234Z,21.27
2019-05-21T02:22:43.671Z,26.58
2019-05-21T02:25:11.165Z,26.77
2019-05-21T02:27:38.609Z,32.30
2019-05-21T02:30:07.559Z,28.27
2019-05-21T02:32:33.627Z,35.67
2019-05-21T02:35:01.993Z,30.27
2019-05-21T02:37:29.464Z,30.20
2019-05-21T02:39:56.955Z,32.50
2019-05-21T02:42:24.404Z,36.20
2019-05-21T02:44:54.233Z,36.90
2019-05-21T02:47:19.378Z,36.90
2019-05-21T02:49:46.832Z,34.23
2019-05-21T02:52:14.288Z,33.93
2019-05-21T02:54:42.153Z,37.13
2019-05-21T02:57:09.247Z,35.58
2019-05-21T02:59:36.756Z,35.22
2019-05-21T03:02:08.421Z,39.87
2019-05-21T03:04:36.023Z,44.75
2019-05-21T03:07:10.007Z,43.40
2019-05-21T03:09:41.390Z,42.93
2019-05-21T03:12:08.849Z,53.13
2019-05-21T03:14:36.344Z,41.83
2019-05-21T03:17:03.831Z,42.37
2019-05-21T03:19:31.302Z,41.37
2019-05-21T03:21:58.762Z,33.17
2019-05-21T03:24:26.216Z,39.33
2019-05-21T03:26:53.660Z,38.00
2019-05-21T03:29:21.121Z,49.83
2019-05-21T03:31:48.562Z,37.67
2019-05-21T03:34:16.032Z,33.53
2019-05-21T03:36:43.500Z,32.13
2019-05-21T03:39:10.989Z,33.03
2019-05-21T03:41:38.485Z,28.53
2019-05-21T03:44:05.948Z,35.10
2019-05-21T03:46:33.454Z,39.20
2019-05-21T03:49:00.944Z,34.37
2019-05-21T03:51:28.393Z,38.87
2019-05-21T03:53:55.883Z,38.53
2019-05-21T03:56:23.385Z,44.47
2019-05-21T03:58:50.822Z,34.53
2019-05-21T04:01:18.273Z,44.30
2019-05-21T04:03:45.746Z,38.00
2019-05-21T04:06:13.223Z,31.57
2019-05-21T04:08:40.685Z,32.25
2019-05-21T04:11:08.170Z,33.45
2019-05-21T04:13:35.645Z,54.90
2019-05-21T04:16:18.796Z,40.70
2019-05-21T04:18:46.274Z,33.20
2019-05-21T04:21:13.777Z,44.08
2019-05-21T04:23:41.239Z,46.20
2019-05-21T04:26:08.737Z,46.97
2019-05-21T04:28:37.395Z,41.77
2019-05-21T04:31:04.872Z,40.77
2019-05-21T04:33:32.359Z,34.27
2019-05-21T04:35:59.835Z,44.07
2019-05-21T04:38:27.286Z,37.33
2019-05-21T04:40:54.769Z,42.33
2019-05-21T04:43:22.254Z,31.47
2019-05-21T04:45:49.764Z,29.93
2019-05-21T04:48:17.230Z,34.60
2019-05-21T04:50:44.678Z,38.75
2019-05-21T04:53:12.135Z,37.67
2019-05-21T04:55:39.641Z,41.10
2019-05-21T04:58:07.099Z,43.07
2019-05-21T05:00:34.547Z,37.78
2019-05-21T05:03:02.030Z,37.60
2019-05-21T05:05:29.677Z,45.78
2019-05-21T05:07:57.215Z,39.33
2019-05-21T05:10:24.645Z,40.75
2019-05-21T05:12:52.085Z,46.90
2019-05-21T05:15:19.576Z,34.50
2019-05-21T05:17:47.076Z,38.50
2019-05-21T05:20:15.515Z,42.63
2019-05-21T05:22:43.088Z,40.03
2019-05-21T05:25:10.547Z,41.17
2019-05-21T05:27:37.983Z,35.13
2019-05-21T05:30:07.263Z,39.50
2019-05-21T05:32:35.644Z,38.03
2019-05-21T05:35:03.233Z,34.57
2019-05-21T05:40:06.269Z,36.63
2019-05-21T05:42:33.715Z,36.53
2019-05-21T05:45:01.172Z,33.63
2019-05-21T05:47:28.627Z,32.80
2019-05-21T05:49:56.403Z,36.67
2019-05-21T05:52:23.845Z,36.10
2019-05-21T05:54:51.343Z,41.03
2019-05-21T05:57:18.834Z,37.07
2019-05-21T05:59:46.317Z,34.70
2019-05-21T06:02:13.749Z,30.83
2019-05-21T06:04:41.219Z,29.55
2019-05-21T06:07:09.258Z,33.50
2019-05-21T06:09:36.776Z,29.77
2019-05-21T06:12:04.205Z,31.50
2019-05-21T06:14:31.671Z,34.60
2019-05-21T06:16:59.172Z,38.53
2019-05-21T06:19:26.671Z,33.80
2019-05-21T06:21:54.119Z,28.67
2019-05-21T06:24:21.582Z,18.53
2019-05-21T06:26:49.076Z,29.07
2019-05-21T06:29:16.528Z,26.00
2019-05-21T06:31:43.975Z,28.08
2019-05-21T06:34:11.426Z,29.20
2019-05-21T06:36:38.888Z,27.40
2019-05-21T06:39:06.334Z,31.08
2019-05-21T06:41:33.813Z,31.47
2019-05-21T06:44:01.467Z,25.37
2019-05-21T06:46:28.958Z,30.23
2019-05-21T06:48:56.420Z,28.67
2019-05-21T06:51:23.896Z,33.90
2019-05-21T06:53:51.352Z,32.57
2019-05-21T06:56:18.852Z,36.30
2019-05-21T06:58:46.293Z,31.03
2019-05-21T07:01:13.756Z,31.15
2019-05-21T07:03:41.230Z,30.80
2019-05-21T07:06:08.703Z,26.97
2019-05-21T07:08:36.714Z,28.13
2019-05-21T07:11:04.211Z,29.17
2019-05-21T07:13:32.209Z,28.70
2019-05-21T07:15:59.683Z,31.67
2019-05-21T07:18:27.191Z,32.87
2019-05-21T07:20:54.635Z,32.37
2019-05-21T07:23:22.108Z,35.90
2019-05-21T07:25:49.567Z,34.50
2019-05-21T07:28:17.148Z,32.07
2019-05-21T07:30:44.630Z,32.80
2019-05-21T07:33:12.212Z,31.92
2019-05-21T07:35:39.678Z,27.73
2019-05-21T07:38:07.165Z,27.97
2019-05-21T07:40:34.611Z,25.53
2019-05-21T07:43:02.733Z,28.13
2019-05-21T07:45:30.181Z,27.20
2019-05-21T07:47:57.669Z,30.80
2019-05-21T07:50:25.126Z,33.47
2019-05-21T07:52:52.590Z,32.90
2019-05-21T07:55:20.076Z,32.10
2019-05-21T07:57:47.577Z,33.83
2019-05-21T08:00:15.810Z,28.12
2019-05-21T08:02:43.245Z,28.10
2019-05-21T08:05:10.754Z,26.33
2019-05-21T08:07:38.197Z,30.67
2019-05-21T08:10:05.731Z,29.20
2019-05-21T08:12:39.077Z,30.30
2019-05-21T08:15:00.895Z,28.37
2019-05-21T08:17:28.401Z,27.80
2019-05-21T08:20:08.186Z,32.07
2019-05-21T08:22:23.475Z,35.57
2019-05-21T08:24:50.944Z,33.47
2019-05-21T08:27:18.449Z,36.57
2019-05-21T08:29:45.923Z,35.90
2019-05-21T08:32:13.415Z,35.17
2019-05-21T08:34:40.923Z,33.53
2019-05-21T08:37:08.366Z,31.87
2019-05-21T08:39:35.879Z,32.17
2019-05-21T08:42:04.056Z,34.63
2019-05-21T08:44:31.563Z,34.60
2019-05-21T08:46:59.138Z,34.55
2019-05-21T08:49:26.676Z,33.27
2019-05-21T08:51:54.124Z,30.53
2019-05-21T08:54:27.227Z,34.38
2019-05-21T08:56:54.742Z,31.03
2019-05-21T08:59:22.194Z,31.30
2019-05-21T09:01:49.672Z,29.98
2019-05-21T09:04:17.230Z,26.80
2019-05-21T09:06:44.699Z,29.43
2019-05-21T09:09:12.163Z,28.50
2019-05-21T09:11:39.626Z,25.07
2019-05-21T09:14:07.062Z,24.77
2019-05-21T09:16:34.616Z,23.55
2019-05-21T09:19:02.052Z,21.23
2019-05-21T09:21:29.515Z,24.70
2019-05-21T09:23:56.960Z,22.73
2019-05-21T09:26:24.438Z,23.13
2019-05-21T09:28:51.868Z,23.20
2019-05-21T09:31:19.332Z,22.45
2019-05-21T09:33:46.779Z,22.13
2019-05-21T09:36:14.267Z,24.33
2019-05-21T09:38:41.722Z,22.07
2019-05-21T09:41:09.179Z,21.62
2019-05-21T09:43:36.642Z,20.27
2019-05-21T09:46:05.071Z,19.00
2019-05-21T09:48:33.481Z,17.77
2019-05-21T09:51:01.005Z,16.87
2019-05-21T09:53:28.501Z,20.03
2019-05-21T09:55:55.947Z,18.83
2019-05-21T09:58:24.174Z,19.57
2019-05-21T10:00:57.260Z,18.57
2019-05-21T10:03:25.088Z,17.90
2019-05-21T10:05:52.550Z,20.50
2019-05-21T10:08:20.028Z,20.20
2019-05-21T10:10:47.493Z,16.70
2019-05-21T10:13:14.973Z,21.07
2019-05-21T10:15:42.424Z,16.93
2019-05-21T10:18:09.905Z,19.12
2019-05-21T10:20:37.351Z,18.13
2019-05-21T10:23:04.832Z,23.30
2019-05-21T10:25:32.302Z,21.43
2019-05-21T10:27:59.814Z,21.50
2019-05-21T10:30:27.295Z,20.77
2019-05-21T10:32:55.471Z,21.70
2019-05-21T10:35:24.104Z,21.70
2019-05-21T10:37:55.121Z,22.10
2019-05-21T10:40:19.219Z,21.63
2019-05-21T10:42:46.670Z,26.00
2019-05-21T10:45:14.150Z,27.93
2019-05-21T10:47:41.752Z,23.77
2019-05-21T10:50:09.256Z,27.75
2019-05-21T10:52:36.710Z,22.90
2019-05-21T10:55:04.914Z,28.57
2019-05-21T10:57:32.422Z,22.80
2019-05-21T10:59:59.884Z,25.00
2019-05-21T11:02:30.816Z,23.90
2019-05-21T11:05:04.837Z,22.70
2019-05-21T11:07:32.293Z,21.37
2019-05-21T11:09:59.789Z,22.23
2019-05-21T11:12:27.219Z,22.47
2019-05-21T11:14:54.688Z,21.65
2019-05-21T11:17:22.151Z,22.90
2019-05-21T11:19:49.630Z,21.87
2019-05-21T11:22:17.099Z,25.77
2019-05-21T11:24:44.562Z,21.73
2019-05-21T11:27:12.035Z,19.90
2019-05-21T11:29:39.516Z,21.93
2019-05-21T11:32:07.098Z,20.87
2019-05-21T11:34:34.578Z,23.67
2019-05-21T11:37:02.057Z,24.97
2019-05-21T11:39:29.523Z,22.67
2019-05-21T11:41:56.979Z,20.90
2019-05-21T11:44:25.414Z,19.97
2019-05-21T11:46:52.943Z,19.57
2019-05-21T11:49:20.410Z,21.80
2019-05-21T11:51:47.886Z,22.37
2019-05-21T11:54:15.386Z,25.97
2019-05-21T11:56:43.550Z,25.33
2019-05-21T11:59:11.125Z,25.53
2019-05-21T12:01:38.578Z,25.87
2019-05-21T12:04:06.048Z,31.40
2019-05-21T12:06:33.504Z,27.70
2019-05-21T12:09:01.060Z,25.70
2019-05-21T12:11:28.677Z,28.03
2019-05-21T12:13:56.120Z,27.00
2019-05-21T12:16:23.543Z,23.83
2019-05-21T12:18:51.087Z,27.87
2019-05-21T12:21:18.579Z,25.77
2019-05-21T12:23:46.011Z,29.87
2019-05-21T12:26:13.500Z,28.80
2019-05-21T12:28:40.979Z,27.07
2019-05-21T12:31:08.458Z,30.33
2019-05-21T12:33:35.961Z,33.63
2019-05-21T12:36:03.415Z,28.00
2019-05-21T12:38:30.894Z,31.43
2019-05-21T12:40:58.387Z,28.10
2019-05-21T12:43:25.837Z,28.63
2019-05-21T12:45:53.321Z,28.83
2019-05-21T12:48:21.273Z,28.20
2019-05-21T12:50:48.804Z,31.70
2019-05-21T12:53:16.798Z,27.43
2019-05-21T12:55:43.785Z,30.90
2019-05-21T12:58:11.223Z,30.10
2019-05-21T13:00:39.046Z,31.58
2019-05-21T13:03:06.527Z,29.07
2019-05-21T13:05:33.961Z,30.27
2019-05-21T13:08:01.446Z,30.73
2019-05-21T13:13:19.887Z,27.90
2019-05-21T13:15:47.317Z,27.60
2019-05-21T13:18:15.306Z,28.75
2019-05-21T13:20:42.800Z,28.33
2019-05-21T13:23:10.283Z,28.75
2019-05-21T13:25:37.749Z,26.43
2019-05-21T13:28:05.194Z,28.27
2019-05-21T13:30:32.699Z,24.70
2019-05-21T13:33:00.914Z,27.87
2019-05-21T13:35:28.346Z,29.10
2019-05-21T13:37:55.849Z,30.67
2019-05-21T13:40:23.276Z,30.40
2019-05-21T13:42:50.751Z,28.08
2019-05-21T13:45:18.271Z,26.50
2019-05-21T13:47:45.728Z,31.17
2019-05-21T13:50:13.212Z,35.20
2019-05-21T13:52:40.732Z,28.97
2019-05-21T13:55:08.230Z,31.53
2019-05-21T13:57:35.695Z,30.23
2019-05-21T14:00:03.183Z,28.53
2019-05-21T14:02:30.679Z,28.90
2019-05-21T14:04:58.136Z,28.77
2019-05-21T14:07:25.637Z,29.40
2019-05-21T14:10:12.506Z,27.23
2019-05-21T14:12:20.701Z,26.30
2019-05-21T14:14:48.217Z,27.77
2019-05-21T14:17:15.688Z,25.48
2019-05-21T14:19:44.200Z,27.00
2019-05-21T14:22:11.752Z,26.80
2019-05-21T14:24:39.264Z,27.40
2019-05-21T14:27:06.754Z,26.17
2019-05-21T14:29:34.249Z,25.90
2019-05-21T14:32:01.724Z,25.30
2019-05-21T14:34:29.212Z,26.03
2019-05-21T14:36:56.712Z,28.20
2019-05-21T14:39:24.159Z,23.40
2019-05-21T14:41:51.618Z,27.20
2019-05-21T14:44:19.116Z,23.00
2019-05-21T14:46:46.595Z,23.10
2019-05-21T14:49:14.037Z,25.23
2019-05-21T14:51:41.515Z,25.63
2019-05-21T14:54:23.755Z,24.00
2019-05-21T14:56:36.473Z,26.73
2019-05-21T14:59:03.957Z,24.90
2019-05-21T15:01:31.426Z,22.90
2019-05-21T15:03:58.981Z,24.40
2019-05-21T15:06:26.423Z,25.12
2019-05-21T15:08:53.916Z,24.12
2019-05-21T15:11:21.409Z,26.05
2019-05-21T15:13:48.907Z,25.95
2019-05-21T15:16:16.369Z,24.87
2019-05-21T15:18:43.849Z,27.57
2019-05-21T15:21:11.684Z,27.17
2019-05-21T15:23:39.237Z,27.10
2019-05-21T15:26:06.671Z,30.73
2019-05-21T15:28:34.138Z,28.13
2019-05-21T15:31:01.684Z,30.10
2019-05-21T15:33:29.116Z,31.30
2019-05-21T15:35:56.617Z,30.27
2019-05-21T15:38:24.080Z,28.83
2019-05-21T15:41:08.499Z,33.37
2019-05-21T15:43:19.085Z,28.58
2019-05-21T15:45:46.576Z,29.10
2019-05-21T15:48:14.062Z,29.03
2019-05-21T15:50:42.134Z,30.23
2019-05-21T15:53:09.634Z,30.03
2019-05-21T15:55:37.117Z,32.20
2019-05-21T15:58:04.572Z,32.33
2019-05-21T16:00:32.067Z,27.60
2019-05-21T16:02:59.530Z,29.50
2019-05-21T16:05:27.893Z,28.60
2019-05-21T16:07:55.325Z,26.23
2019-05-21T16:10:22.794Z,31.08
2019-05-21T16:12:53.920Z,26.43
2019-05-21T16:15:17.760Z,24.45
2019-05-21T16:17:45.219Z,27.37
2019-05-21T16:20:12.719Z,26.27
2019-05-21T16:22:40.255Z,26.73
2019-05-21T16:25:07.732Z,27.97
2019-05-21T16:27:35.221Z,26.33
2019-05-21T16:30:02.748Z,25.87
2019-05-21T16:32:30.234Z,26.63
2019-05-21T16:34:57.724Z,22.42
2019-05-21T16:37:25.200Z,22.83
2019-05-21T16:39:52.644Z,23.05
2019-05-21T16:42:20.120Z,24.50
2019-05-21T16:44:47.573Z,24.57
2019-05-21T16:47:15.056Z,24.05
2019-05-21T16:49:43.243Z,22.97
2019-05-21T16:52:11.905Z,24.27
2019-05-21T16:54:39.455Z,25.30
2019-05-21T16:57:06.908Z,25.57
2019-05-21T16:59:34.390Z,26.30
2019-05-21T17:02:01.835Z,26.63
2019-05-21T17:04:29.310Z,28.90
2019-05-21T17:06:56.782Z,32.47
2019-05-21T17:09:27.994Z,35.57
2019-05-21T17:11:59.424Z,29.30
2019-05-21T17:14:19.231Z,30.80
2019-05-21T17:16:46.667Z,33.63
2019-05-21T17:19:14.192Z,30.27
2019-05-21T17:21:41.632Z,33.78
2019-05-21T17:24:09.113Z,32.57
2019-05-21T17:26:37.317Z,30.20
2019-05-21T17:29:04.851Z,29.98
2019-05-21T17:31:32.329Z,30.60
2019-05-21T17:33:59.795Z,30.13
2019-05-21T17:36:27.262Z,25.27
2019-05-21T17:38:54.739Z,27.70
2019-05-21T17:41:22.179Z,28.38
2019-05-21T17:43:49.663Z,32.60
2019-05-21T17:46:17.137Z,27.87
2019-05-21T17:48:44.584Z,30.77
2019-05-21T17:51:12.072Z,28.10
2019-05-21T17:53:39.520Z,26.87
2019-05-21T17:56:06.971Z,25.87
2019-05-21T17:58:34.419Z,25.73
2019-05-21T18:01:09.969Z,23.87
2019-05-21T18:03:37.420Z,20.55
2019-05-21T18:06:04.907Z,20.33
2019-05-21T18:08:32.384Z,22.40
2019-05-21T18:10:59.855Z,19.33
2019-05-21T18:13:27.339Z,20.13
2019-05-21T18:15:54.797Z,21.95
2019-05-21T18:18:22.280Z,20.87
2019-05-21T18:20:49.731Z,22.93
2019-05-21T18:23:17.216Z,21.53
2019-05-21T18:25:45.056Z,22.62
2019-05-21T18:28:12.530Z,21.23
2019-05-21T18:30:39.986Z,24.47
2019-05-21T18:33:07.447Z,21.77
2019-05-21T18:35:34.899Z,21.17
2019-05-21T18:38:02.376Z,22.37
2019-05-21T18:40:29.842Z,23.27
2019-05-21T18:42:57.330Z,22.53
2019-05-21T18:45:24.798Z,22.17
2019-05-21T18:47:52.270Z,23.73
2019-05-21T18:50:34.482Z,21.50
2019-05-21T18:52:49.668Z,24.67
2019-05-21T18:55:14.766Z,22.77
2019-05-21T18:57:42.199Z,23.20
2019-05-21T19:00:09.698Z,23.25
2019-05-21T19:02:37.167Z,24.60
2019-05-21T19:05:05.402Z,23.50
2019-05-21T19:07:33.520Z,22.03
2019-05-21T19:10:01.667Z,23.30
2019-05-21T19:12:37.391Z,22.25
2019-05-21T19:14:56.371Z,21.83
2019-05-21T19:17:35.263Z,24.40
2019-05-21T19:19:52.358Z,25.27
2019-05-21T19:22:20.176Z,27.60
2019-05-21T19:24:47.666Z,24.77
2019-05-21T19:27:15.110Z,23.57
2019-05-21T19:29:42.566Z,24.63
2019-05-21T19:32:10.035Z,23.67
2019-05-21T19:34:37.502Z,24.40
2019-05-21T19:37:04.968Z,25.40
2019-05-21T19:39:32.423Z,26.30
2019-05-21T19:42:00.001Z,25.40
2019-05-21T19:44:27.462Z,26.63
2019-05-21T19:46:54.932Z,26.53
2019-05-21T19:49:22.453Z,27.97
2019-05-21T19:51:50.000Z,27.37
2019-05-21T19:54:17.437Z,30.30
2019-05-21T19:56:44.913Z,28.97
2019-05-21T19:59:12.600Z,31.27
2019-05-21T20:01:40.067Z,28.43
2019-05-21T20:04:07.511Z,30.17
2019-05-21T20:06:35.140Z,34.93
2019-05-21T20:09:02.656Z,31.65
2019-05-21T20:11:31.000Z,28.60
2019-05-21T20:13:58.512Z,29.05
2019-05-21T20:16:26.077Z,27.43
2019-05-21T20:18:53.560Z,29.13
2019-05-21T20:21:21.723Z,28.40
2019-05-21T20:23:49.174Z,27.67
2019-05-21T20:26:16.619Z,29.40
2019-05-21T20:28:44.365Z,32.60
2019-05-21T20:31:11.814Z,29.57
2019-05-21T20:33:39.321Z,29.10
2019-05-21T20:36:06.804Z,33.70
2019-05-21T20:38:34.287Z,31.80
2019-05-21T20:41:01.823Z,28.93
2019-05-21T20:43:29.312Z,32.77
2019-05-21T20:45:57.206Z,28.67
2019-05-21T20:48:24.704Z,30.35
2019-05-21T20:50:52.790Z,31.27
2019-05-21T20:53:20.380Z,30.33
2019-05-21T20:55:47.849Z,29.70
2019-05-21T20:58:16.989Z,26.73
2019-05-21T21:00:47.345Z,27.73
2019-05-21T21:03:14.782Z,28.33
2019-05-21T21:05:42.248Z,28.93
2019-05-21T21:08:09.749Z,27.47
2019-05-21T21:10:37.291Z,28.47
2019-05-21T21:13:04.789Z,30.80
2019-05-21T21:15:32.282Z,28.93
2019-05-21T21:17:59.750Z,31.65
2019-05-21T21:20:27.224Z,32.83
2019-05-21T21:22:54.686Z,33.93
2019-05-21T21:25:22.903Z,35.80
2019-05-21T21:27:50.365Z,36.53
2019-05-21T21:30:17.815Z,35.10
2019-05-21T21:32:45.285Z,34.60
2019-05-21T21:35:12.719Z,34.13
2019-05-21T21:37:40.175Z,35.73
2019-05-21T21:40:07.656Z,36.00
2019-05-21T21:42:35.133Z,32.97
2019-05-21T21:45:02.610Z,33.50
2019-05-21T21:47:30.065Z,34.03
2019-05-21T21:49:57.534Z,32.30
2019-05-21T21:52:25.005Z,31.43
2019-05-21T21:54:53.038Z,34.65
2019-05-21T21:57:20.503Z,38.40
2019-05-21T21:59:47.969Z,36.92
2019-05-21T22:02:25.334Z,33.83
2019-05-21T22:04:53.124Z,34.87
2019-05-21T22:07:20.583Z,41.43
2019-05-21T22:09:48.063Z,35.22
2019-05-21T22:12:15.549Z,35.10
2019-05-21T22:14:51.197Z,40.90
2019-05-21T22:17:10.482Z,43.33
2019-05-21T22:19:37.946Z,38.20
2019-05-21T22:22:05.403Z,48.50
2019-05-21T22:24:32.892Z,39.33
2019-05-21T22:27:00.373Z,41.53
2019-05-21T22:29:27.865Z,40.12
2019-05-21T22:31:55.329Z,42.70
2019-05-21T22:34:23.194Z,44.80
2019-05-21T22:36:50.642Z,36.67
2019-05-21T22:39:18.130Z,44.05
2019-05-21T22:41:45.634Z,38.03
2019-05-21T22:44:13.688Z,37.93
2019-05-21T22:46:41.298Z,53.40
2019-05-21T22:49:08.736Z,40.97
2019-05-21T22:51:36.251Z,42.00
2019-05-21T22:54:03.690Z,42.20
2019-05-21T22:56:31.179Z,43.47
2019-05-21T22:58:58.635Z,40.95
2019-05-21T23:01:26.133Z,51.60
2019-05-21T23:03:53.615Z,45.67
2019-05-21T23:06:21.094Z,42.43
2019-05-21T23:08:48.532Z,42.93
2019-05-21T23:11:16.003Z,51.47
2019-05-21T23:13:43.455Z,40.40
2019-05-21T23:16:10.904Z,44.23
2019-05-21T23:18:38.354Z,48.87
2019-05-21T23:21:05.856Z,47.53
2019-05-21T23:23:33.310Z,50.90
2019-05-21T23:26:00.758Z,48.38
2019-05-21T23:28:28.243Z,45.50
2019-05-21T23:30:55.723Z,41.83
2019-05-21T23:33:23.494Z,44.58
2019-05-21T23:35:50.963Z,53.33
2019-05-21T23:38:18.424Z,51.80
2019-05-21T23:40:45.886Z,44.53
2019-05-21T23:43:13.388Z,52.90
2019-05-21T23:45:40.843Z,45.47
2019-05-21T23:48:08.349Z,53.08
2019-05-21T23:50:35.789Z,45.78
2019-05-21T23:53:03.263Z,44.72
2019-05-21T23:55:30.746Z,43.90
2019-05-21T23:57:58.245Z,40.30
